createdAt,value
2023-12-20T00:01:17.554Z,102175.44
2023-12-20T00:03:45.358Z,102175.56
2023-12-20T00:06:14.528Z,102186.88
2023-12-20T00:08:42.279Z,102180.75
2023-12-20T00:11:10.048Z,102180.03
2023-12-20T00:13:37.778Z,102182.06
2023-12-20T00:16:06.175Z,102185.88
2023-12-20T00:18:33.907Z,102189.22
2023-12-20T00:21:01.638Z,102188.94
2023-12-20T00:23:30.704Z,102195.13
2023-12-20T00:25:58.606Z,102197.13
2023-12-20T00:28:26.442Z,102197.91
2023-12-20T00:30:54.396Z,102195.19
2023-12-20T00:33:22.253Z,102195.81
2023-12-20T00:35:50.006Z,102201.50
2023-12-20T00:38:17.780Z,102197.22
2023-12-20T00:40:46.865Z,102208.69
2023-12-20T00:43:14.674Z,102207.09
2023-12-20T00:45:42.576Z,102209.94
2023-12-20T00:48:10.453Z,102211.75
2023-12-20T00:50:38.266Z,102214.38
2023-12-20T00:53:06.862Z,102225.97
2023-12-20T00:55:34.935Z,102224.22
2023-12-20T00:58:04.039Z,102226.09
2023-12-20T01:00:31.878Z,102225.44
2023-12-20T01:02:59.614Z,102228.81
2023-12-20T01:05:27.324Z,102226.88
2023-12-20T01:07:55.087Z,102230.38
2023-12-20T01:10:23.972Z,102227.00
2023-12-20T01:12:51.730Z,102229.47
2023-12-20T01:15:20.911Z,102217.38
2023-12-20T01:17:48.900Z,102228.44
2023-12-20T01:20:18.184Z,102236.78
2023-12-20T01:22:47.163Z,102244.91
2023-12-20T01:25:15.033Z,102233.25
2023-12-20T01:27:42.979Z,102235.97
2023-12-20T01:30:11.620Z,102229.31
2023-12-20T01:32:40.738Z,102204.75
2023-12-20T01:35:09.193Z,102221.47
2023-12-20T01:37:36.998Z,102236.53
2023-12-20T01:40:05.390Z,102241.66
2023-12-20T01:42:33.099Z,102253.50
2023-12-20T01:45:00.867Z,102235.13
2023-12-20T01:47:29.131Z,102255.00
2023-12-20T01:49:58.959Z,102258.28
2023-12-20T01:52:28.529Z,102262.16
2023-12-20T01:55:02.243Z,102271.84
2023-12-20T01:57:30.387Z,102269.72
2023-12-20T01:59:58.764Z,102264.28
2023-12-20T02:02:29.599Z,102255.19
2023-12-20T02:04:59.321Z,102264.50
2023-12-20T02:07:27.895Z,102260.78
2023-12-20T02:09:55.695Z,102252.41
2023-12-20T02:12:23.843Z,102244.19
2023-12-20T02:14:51.799Z,102248.69
2023-12-20T02:17:19.735Z,102253.25
2023-12-20T02:19:48.068Z,102257.00
2023-12-20T02:22:17.537Z,102250.00
2023-12-20T02:24:45.411Z,102249.16
2023-12-20T02:27:14.392Z,102255.00
2023-12-20T02:29:42.065Z,102252.31
2023-12-20T02:32:09.761Z,102257.41
2023-12-20T02:34:37.600Z,102254.38
2023-12-20T02:37:05.600Z,102253.59
2023-12-20T02:39:35.081Z,102252.66
2023-12-20T02:42:02.775Z,102250.94
2023-12-20T02:44:30.603Z,102253.53
2023-12-20T02:46:58.384Z,102253.84
2023-12-20T02:49:26.178Z,102252.94
2023-12-20T02:51:54.068Z,102244.06
2023-12-20T02:54:22.282Z,102247.06
2023-12-20T02:56:51.390Z,102245.78
2023-12-20T02:59:19.142Z,102247.22
2023-12-20T03:01:48.444Z,102237.84
2023-12-20T03:04:16.379Z,102240.53
2023-12-20T03:06:44.146Z,102242.88
2023-12-20T03:09:11.843Z,102251.09
2023-12-20T03:11:39.601Z,102246.00
2023-12-20T03:14:08.672Z,102249.88
2023-12-20T03:16:37.153Z,102248.16
2023-12-20T03:19:05.338Z,102250.56
2023-12-20T03:21:33.223Z,102250.22
2023-12-20T03:24:00.937Z,102254.19
2023-12-20T03:26:28.664Z,102264.78
2023-12-20T03:28:56.379Z,102256.19
2023-12-20T03:31:25.563Z,102261.03
2023-12-20T03:33:54.746Z,102267.28
2023-12-20T03:36:22.653Z,102257.75
2023-12-20T03:38:50.410Z,102255.28
2023-12-20T03:41:18.156Z,102260.78
2023-12-20T03:43:45.870Z,102252.75
2023-12-20T03:46:13.628Z,102250.47
2023-12-20T03:48:42.768Z,102253.31
2023-12-20T03:51:10.524Z,102256.06
2023-12-20T03:53:38.372Z,102256.94
2023-12-20T03:56:06.895Z,102259.47
2023-12-20T03:58:34.669Z,102260.47
2023-12-20T04:01:02.383Z,102258.91
2023-12-20T04:03:30.154Z,102253.88
2023-12-20T04:05:59.338Z,102255.56
2023-12-20T04:08:27.139Z,102251.44
2023-12-20T04:10:54.882Z,102237.50
2023-12-20T04:13:22.724Z,102233.75
2023-12-20T04:15:52.177Z,102230.75
2023-12-20T04:18:19.963Z,102231.56
2023-12-20T04:20:48.002Z,102240.59
2023-12-20T04:23:17.069Z,102241.56
2023-12-20T04:25:44.799Z,102245.34
2023-12-20T04:28:12.578Z,102253.25
2023-12-20T04:30:40.488Z,102253.41
2023-12-20T04:33:08.280Z,102236.19
2023-12-20T04:35:36.170Z,102239.22
2023-12-20T04:38:03.967Z,102235.59
2023-12-20T04:40:33.039Z,102232.00
2023-12-20T04:43:00.800Z,102230.44
2023-12-20T04:45:28.570Z,102237.53
2023-12-20T04:47:57.085Z,102242.16
2023-12-20T04:50:24.855Z,102247.06
2023-12-20T04:52:53.312Z,102245.91
2023-12-20T04:55:21.155Z,102256.75
2023-12-20T04:57:50.327Z,102255.84
2023-12-20T05:00:18.670Z,102259.69
2023-12-20T05:02:46.384Z,102264.19
2023-12-20T05:05:16.245Z,102268.88
2023-12-20T05:07:44.339Z,102264.19
2023-12-20T05:10:12.585Z,102260.47
2023-12-20T05:12:40.438Z,102260.19
2023-12-20T05:15:10.464Z,102267.19
2023-12-20T05:17:38.239Z,102260.19
2023-12-20T05:20:07.245Z,102267.94
2023-12-20T05:22:35.110Z,102257.69
2023-12-20T05:25:03.182Z,102247.53
2023-12-20T05:27:30.903Z,102263.56
2023-12-20T05:29:58.965Z,102262.38
2023-12-20T05:32:28.187Z,102268.63
2023-12-20T05:34:56.091Z,102270.72
2023-12-20T05:37:23.922Z,102271.88
2023-12-20T05:39:51.713Z,102276.97
2023-12-20T05:42:19.549Z,102278.25
2023-12-20T05:44:47.294Z,102282.81
2023-12-20T05:47:15.283Z,102284.94
2023-12-20T05:49:45.088Z,102277.22
2023-12-20T05:52:12.922Z,102273.56
2023-12-20T05:54:40.735Z,102271.06
2023-12-20T05:57:08.490Z,102279.81
2023-12-20T05:59:36.165Z,102278.78
2023-12-20T06:02:05.831Z,102295.41
2023-12-20T06:04:33.903Z,102274.91
2023-12-20T06:07:03.142Z,102279.06
2023-12-20T06:09:32.348Z,102273.50
2023-12-20T06:12:00.234Z,102285.03
2023-12-20T06:14:28.005Z,102287.50
2023-12-20T06:16:55.864Z,102296.03
2023-12-20T06:19:23.679Z,102291.44
2023-12-20T06:21:51.533Z,102293.28
2023-12-20T06:24:20.616Z,102296.56
2023-12-20T06:26:48.391Z,102298.41
2023-12-20T06:29:16.213Z,102294.25
2023-12-20T06:31:43.990Z,102307.22
2023-12-20T06:34:11.923Z,102311.06
2023-12-20T06:36:39.729Z,102306.75
2023-12-20T06:39:07.496Z,102300.22
2023-12-20T06:41:36.601Z,102310.44
2023-12-20T06:44:04.620Z,102307.81
2023-12-20T06:46:32.364Z,102311.97
2023-12-20T06:49:00.196Z,102328.44
2023-12-20T06:51:28.070Z,102325.78
2023-12-20T06:53:55.847Z,102316.94
2023-12-20T06:56:23.600Z,102330.13
2023-12-20T06:58:52.744Z,102335.47
2023-12-20T07:01:20.641Z,102344.50
2023-12-20T07:03:48.517Z,102352.94
2023-12-20T07:06:17.669Z,102344.16
2023-12-20T07:08:45.692Z,102342.00
2023-12-20T07:11:13.467Z,102339.69
2023-12-20T07:13:41.203Z,102336.22
2023-12-20T07:16:10.252Z,102335.78
2023-12-20T07:18:38.116Z,102332.16
2023-12-20T07:21:06.141Z,102339.91
2023-12-20T07:23:33.885Z,102342.66
2023-12-20T07:26:01.667Z,102338.88
2023-12-20T07:28:29.397Z,102349.25
2023-12-20T07:30:57.371Z,102348.16
2023-12-20T07:33:26.623Z,102344.31
2023-12-20T07:35:54.635Z,102341.28
2023-12-20T07:38:22.468Z,102334.75
2023-12-20T07:40:50.242Z,102349.63
2023-12-20T07:43:17.966Z,102341.00
2023-12-20T07:45:45.820Z,102341.22
2023-12-20T07:48:13.598Z,102358.19
2023-12-20T07:50:43.267Z,102356.38
2023-12-20T07:53:10.983Z,102346.47
2023-12-20T07:55:38.787Z,102347.59
2023-12-20T07:58:07.225Z,102349.19
2023-12-20T08:00:35.043Z,102338.66
2023-12-20T08:03:04.800Z,102339.06
2023-12-20T08:05:32.610Z,102330.88
2023-12-20T08:08:01.661Z,102333.56
2023-12-20T08:10:30.857Z,102328.97
2023-12-20T08:12:57.698Z,102330.78
2023-12-20T08:15:25.637Z,102334.22
2023-12-20T08:17:53.434Z,102327.91
2023-12-20T08:20:26.869Z,102330.91
2023-12-20T08:23:01.808Z,102329.22
2023-12-20T08:25:29.611Z,102343.31
2023-12-20T08:27:57.353Z,102339.88
2023-12-20T08:30:26.145Z,102340.69
2023-12-20T08:32:54.040Z,102344.94
2023-12-20T08:35:21.906Z,102352.94
2023-12-20T08:37:49.625Z,102357.41
2023-12-20T08:40:18.851Z,102351.31
2023-12-20T08:42:46.600Z,102352.94
2023-12-20T08:45:14.362Z,102355.91
2023-12-20T08:47:42.347Z,102361.78
2023-12-20T08:50:10.543Z,102359.47
2023-12-20T08:52:38.471Z,102386.13
2023-12-20T08:55:07.322Z,102376.31
2023-12-20T08:57:36.523Z,102384.25
2023-12-20T09:00:06.707Z,102388.22
2023-12-20T09:02:37.098Z,102382.31
2023-12-20T09:05:05.503Z,102386.13
2023-12-20T09:07:33.619Z,102385.69
2023-12-20T09:10:01.423Z,102388.47
2023-12-20T09:12:29.190Z,102390.53
2023-12-20T09:14:58.235Z,102389.78
2023-12-20T09:17:27.634Z,102381.78
2023-12-20T09:19:55.667Z,102384.13
2023-12-20T09:22:23.674Z,102377.03
2023-12-20T09:24:51.508Z,102371.13
2023-12-20T09:27:19.284Z,102366.00
2023-12-20T09:29:47.100Z,102369.91
2023-12-20T09:32:16.224Z,102359.03
2023-12-20T09:34:44.013Z,102359.66
2023-12-20T09:37:11.868Z,102355.09
2023-12-20T09:39:39.657Z,102355.16
2023-12-20T09:42:08.968Z,102351.97
2023-12-20T09:44:37.373Z,102360.53
2023-12-20T09:47:06.367Z,102363.09
2023-12-20T09:49:36.443Z,102358.69
2023-12-20T09:52:08.383Z,102341.31
2023-12-20T09:54:36.178Z,102365.50
2023-12-20T09:57:04.047Z,102370.50
2023-12-20T09:59:31.832Z,102363.09
2023-12-20T10:02:00.147Z,102361.09
2023-12-20T10:04:30.498Z,102366.75
2023-12-20T10:07:07.137Z,102375.44
2023-12-20T10:09:36.690Z,102379.50
2023-12-20T10:12:06.533Z,102385.44
2023-12-20T10:14:34.929Z,102377.88
2023-12-20T10:17:05.005Z,102384.53
2023-12-20T10:19:33.013Z,102376.38
2023-12-20T10:22:02.922Z,102376.34
2023-12-20T10:24:31.536Z,102378.56
2023-12-20T10:27:06.657Z,102378.88
2023-12-20T10:29:38.090Z,102379.25
2023-12-20T10:32:25.952Z,102379.31
2023-12-20T10:34:53.955Z,102369.66
2023-12-20T10:37:23.395Z,102370.31
2023-12-20T10:39:53.869Z,102362.25
2023-12-20T10:42:23.972Z,102355.22
2023-12-20T10:44:52.655Z,102348.41
2023-12-20T10:47:21.659Z,102361.44
2023-12-20T10:49:50.248Z,102351.09
2023-12-20T10:52:19.159Z,102355.34
2023-12-20T10:54:48.538Z,102349.84
2023-12-20T10:57:18.746Z,102345.06
2023-12-20T10:59:51.223Z,102347.19
2023-12-20T11:02:19.212Z,102340.84
2023-12-20T11:04:54.014Z,102346.22
2023-12-20T11:07:28.051Z,102339.06
2023-12-20T11:10:02.487Z,102328.69
2023-12-20T11:12:40.758Z,102327.66
2023-12-20T11:15:09.768Z,102329.53
2023-12-20T11:17:38.151Z,102323.94
2023-12-20T11:20:08.756Z,102311.72
2023-12-20T11:22:39.497Z,102306.78
2023-12-20T11:25:12.441Z,102303.66
2023-12-20T11:27:44.290Z,102313.16
2023-12-20T11:30:13.482Z,102313.03
2023-12-20T11:32:42.287Z,102298.19
2023-12-20T11:35:21.600Z,102308.91
2023-12-20T11:37:49.830Z,102300.78
2023-12-20T11:40:23.029Z,102309.81
2023-12-20T11:42:51.844Z,102306.91
2023-12-20T11:45:23.086Z,102300.38
2023-12-20T11:47:53.028Z,102293.34
2023-12-20T11:50:21.464Z,102283.16
2023-12-20T11:52:49.578Z,102283.34
2023-12-20T11:55:17.442Z,102295.28
2023-12-20T11:57:47.169Z,102294.47
2023-12-20T12:00:16.648Z,102283.34
2023-12-20T12:02:46.600Z,102277.16
2023-12-20T12:05:15.356Z,102266.56
2023-12-20T12:07:43.392Z,102263.22
2023-12-20T12:10:11.303Z,102269.75
2023-12-20T12:12:39.193Z,102258.63
2023-12-20T12:15:10.311Z,102251.94
2023-12-20T12:17:38.274Z,102242.34
2023-12-20T12:20:08.222Z,102250.22
2023-12-20T12:22:37.006Z,102233.69
2023-12-20T12:25:12.954Z,102223.53
2023-12-20T12:27:42.826Z,102233.19
2023-12-20T12:30:14.208Z,102220.06
2023-12-20T12:32:42.781Z,102220.50
2023-12-20T12:35:11.265Z,102214.81
2023-12-20T12:37:41.603Z,102215.16
2023-12-20T12:40:12.568Z,102213.16
2023-12-20T12:42:40.376Z,102215.34
2023-12-20T12:45:09.088Z,102209.19
2023-12-20T12:47:38.598Z,102216.88
2023-12-20T12:50:06.991Z,102209.63
2023-12-20T12:52:36.489Z,102198.41
2023-12-20T12:55:06.000Z,102203.22
2023-12-20T12:57:34.745Z,102199.91
2023-12-20T13:00:04.076Z,102193.03
2023-12-20T13:02:31.897Z,102183.81
2023-12-20T13:05:02.309Z,102201.75
2023-12-20T13:07:30.250Z,102193.22
2023-12-20T13:09:58.022Z,102193.97
2023-12-20T13:12:25.756Z,102177.53
2023-12-20T13:14:54.724Z,102167.88
2023-12-20T13:17:22.585Z,102172.06
2023-12-20T13:19:51.066Z,102177.41
2023-12-20T13:22:20.717Z,102176.97
2023-12-20T13:24:48.464Z,102182.50
2023-12-20T13:27:16.211Z,102171.41
2023-12-20T13:29:43.913Z,102171.06
2023-12-20T13:32:11.687Z,102159.47
2023-12-20T13:34:39.629Z,102166.00
2023-12-20T13:37:07.479Z,102153.34
2023-12-20T13:39:36.617Z,102149.41
2023-12-20T13:42:04.648Z,102136.91
2023-12-20T13:44:32.357Z,102136.28
2023-12-20T13:47:00.120Z,102131.38
2023-12-20T13:49:28.653Z,102130.22
2023-12-20T13:51:56.832Z,102135.34
2023-12-20T13:54:24.996Z,102120.56
2023-12-20T13:57:05.922Z,102098.81
2023-12-20T13:59:40.220Z,102107.50
2023-12-20T14:02:07.978Z,102095.41
2023-12-20T14:04:41.909Z,102091.59
2023-12-20T14:07:13.045Z,102077.72
2023-12-20T14:09:46.285Z,102080.00
2023-12-20T14:12:16.185Z,102081.78
2023-12-20T14:14:46.136Z,102073.44
2023-12-20T14:17:14.007Z,102077.53
2023-12-20T14:19:41.798Z,102060.88
2023-12-20T14:22:09.644Z,102063.59
2023-12-20T14:24:37.590Z,102060.47
2023-12-20T14:27:05.403Z,102056.13
2023-12-20T14:29:34.520Z,102050.81
2023-12-20T14:32:03.918Z,102042.78
2023-12-20T14:34:31.717Z,102044.19
2023-12-20T14:36:59.531Z,102037.53
2023-12-20T14:39:27.211Z,102040.72
2023-12-20T14:41:55.445Z,102045.25
2023-12-20T14:44:23.242Z,102046.31
2023-12-20T14:46:52.425Z,102046.94
2023-12-20T14:49:19.335Z,102056.38
2023-12-20T14:51:48.860Z,102049.81
2023-12-20T14:54:16.645Z,102060.03
2023-12-20T14:56:44.439Z,102051.09
2023-12-20T14:59:12.263Z,102046.50
2023-12-20T15:01:41.708Z,102039.81
2023-12-20T15:04:11.066Z,102043.16
2023-12-20T15:06:38.864Z,102039.06
2023-12-20T15:09:07.150Z,102043.44
2023-12-20T15:11:35.637Z,102048.66
2023-12-20T15:14:03.765Z,102040.13
2023-12-20T15:16:31.609Z,102045.88
2023-12-20T15:19:00.028Z,102044.59
2023-12-20T15:21:33.479Z,102027.84
2023-12-20T15:24:10.744Z,102021.66
2023-12-20T15:26:40.556Z,102026.53
2023-12-20T15:29:08.526Z,102032.81
2023-12-20T15:31:36.920Z,102012.00
2023-12-20T15:34:04.729Z,102012.41
2023-12-20T15:36:33.924Z,102006.56
2023-12-20T15:39:01.700Z,102002.88
2023-12-20T15:41:29.426Z,102003.13
2023-12-20T15:43:57.184Z,102003.25
2023-12-20T15:46:24.984Z,102002.31
2023-12-20T15:48:53.764Z,102009.66
2023-12-20T15:51:23.196Z,102004.44
2023-12-20T15:53:52.875Z,102002.69
2023-12-20T15:56:20.812Z,102002.31
2023-12-20T15:58:49.248Z,101989.59
2023-12-20T16:01:17.204Z,101993.72
2023-12-20T16:03:51.031Z,101984.72
2023-12-20T16:06:23.130Z,101987.09
2023-12-20T16:08:52.265Z,101979.63
2023-12-20T16:11:20.035Z,101965.97
2023-12-20T16:13:47.874Z,101972.59
2023-12-20T16:16:15.744Z,102000.91
2023-12-20T16:18:43.489Z,102018.50
2023-12-20T16:21:11.397Z,102018.63
2023-12-20T16:23:39.117Z,102002.44
2023-12-20T16:26:08.250Z,102014.28
2023-12-20T16:28:36.083Z,101996.94
2023-12-20T16:31:04.284Z,102003.44
2023-12-20T16:33:32.161Z,101999.84
2023-12-20T16:36:00.007Z,101999.81
2023-12-20T16:38:27.746Z,102004.94
2023-12-20T16:40:56.218Z,101999.28
2023-12-20T16:43:25.412Z,102002.44
2023-12-20T16:45:53.202Z,101994.28
2023-12-20T16:48:20.964Z,101998.47
2023-12-20T16:50:48.886Z,101990.97
2023-12-20T16:53:17.251Z,101994.78
2023-12-20T16:55:45.845Z,101983.78
2023-12-20T16:58:13.982Z,101979.47
2023-12-20T17:00:43.107Z,101978.56
2023-12-20T17:03:10.888Z,101972.16
2023-12-20T17:05:38.723Z,101968.44
2023-12-20T17:08:07.423Z,101962.41
2023-12-20T17:10:35.400Z,101959.88
2023-12-20T17:13:03.480Z,101958.63
2023-12-20T17:15:31.304Z,101976.63
2023-12-20T17:18:02.245Z,101971.28
2023-12-20T17:20:30.229Z,101965.28
2023-12-20T17:23:00.085Z,101961.28
2023-12-20T17:25:27.870Z,101966.63
2023-12-20T17:27:57.448Z,101974.50
2023-12-20T17:30:25.538Z,101980.00
2023-12-20T17:32:53.350Z,101976.38
2023-12-20T17:35:22.555Z,101968.34
2023-12-20T17:37:52.961Z,101961.09
2023-12-20T17:40:21.313Z,101965.84
2023-12-20T17:42:49.515Z,101951.19
2023-12-20T17:45:17.489Z,101948.78
2023-12-20T17:47:45.717Z,101943.53
2023-12-20T17:50:13.811Z,101946.50
2023-12-20T17:52:43.091Z,101958.25
2023-12-20T17:55:10.976Z,101969.47
2023-12-20T17:57:38.707Z,101976.16
2023-12-20T18:00:15.088Z,101980.16
2023-12-20T18:02:42.897Z,101982.44
2023-12-20T18:05:10.683Z,101975.91
2023-12-20T18:07:39.866Z,101981.03
2023-12-20T18:10:10.451Z,101984.31
2023-12-20T18:12:38.230Z,101988.34
2023-12-20T18:15:06.698Z,101985.31
2023-12-20T18:17:34.590Z,101990.34
2023-12-20T18:20:04.901Z,101984.50
2023-12-20T18:22:32.816Z,101979.44
2023-12-20T18:25:00.761Z,101978.63
2023-12-20T18:27:29.867Z,101969.31
2023-12-20T18:30:05.460Z,101971.09
2023-12-20T18:32:40.088Z,101970.03
2023-12-20T18:35:08.591Z,101970.06
2023-12-20T18:37:36.633Z,101967.25
2023-12-20T18:40:04.600Z,101967.06
2023-12-20T18:42:33.994Z,101971.44
2023-12-20T18:45:02.347Z,101967.00
2023-12-20T18:47:30.059Z,101963.91
2023-12-20T18:49:57.847Z,101956.81
2023-12-20T18:52:25.852Z,101969.00
2023-12-20T18:54:54.783Z,101969.81
2023-12-20T18:57:22.518Z,101976.94
2023-12-20T18:59:51.576Z,101967.09
2023-12-20T19:02:19.496Z,101959.63
2023-12-20T19:04:47.375Z,101971.44
2023-12-20T19:07:15.290Z,101951.69
2023-12-20T19:09:43.001Z,101956.31
2023-12-20T19:12:10.726Z,101949.53
2023-12-20T19:14:38.429Z,101946.75
2023-12-20T19:17:07.542Z,101940.66
2023-12-20T19:19:36.425Z,101939.34
2023-12-20T19:22:04.558Z,101928.50
2023-12-20T19:24:32.365Z,101931.16
2023-12-20T19:27:00.079Z,101936.81
2023-12-20T19:29:27.793Z,101936.25
2023-12-20T19:31:55.585Z,101936.97
2023-12-20T19:34:24.977Z,101938.13
2023-12-20T19:36:52.832Z,101932.22
2023-12-20T19:39:20.870Z,101954.53
2023-12-20T19:41:48.770Z,101941.75
2023-12-20T19:44:18.535Z,101950.34
2023-12-20T19:46:49.190Z,101951.28
2023-12-20T19:49:16.994Z,101958.44
2023-12-20T19:51:46.126Z,101955.38
2023-12-20T19:54:13.893Z,101952.06
2023-12-20T19:56:41.620Z,101936.81
2023-12-20T19:59:09.391Z,101938.97
2023-12-20T20:01:41.220Z,101946.13
2023-12-20T20:04:09.609Z,101959.28
2023-12-20T20:06:37.857Z,101947.41
2023-12-20T20:09:07.332Z,101941.88
2023-12-20T20:11:35.970Z,101947.22
2023-12-20T20:14:03.961Z,101926.94
2023-12-20T20:16:31.888Z,101936.75
2023-12-20T20:18:59.881Z,101938.00
2023-12-20T20:21:27.741Z,101917.06
2023-12-20T20:23:55.595Z,101912.84
2023-12-20T20:26:24.843Z,101903.63
2023-12-20T20:28:52.727Z,101902.06
2023-12-20T20:31:20.621Z,101900.22
2023-12-20T20:33:48.510Z,101895.31
2023-12-20T20:36:16.310Z,101887.69
2023-12-20T20:38:44.030Z,101882.41
2023-12-20T20:41:11.934Z,101882.75
2023-12-20T20:43:41.337Z,101883.69
2023-12-20T20:46:09.347Z,101883.53
2023-12-20T20:48:44.632Z,101884.78
2023-12-20T20:51:18.804Z,101899.25
2023-12-20T20:53:46.560Z,101893.16
2023-12-20T20:56:15.275Z,101893.34
2023-12-20T20:58:44.427Z,101884.63
2023-12-20T21:01:12.252Z,101872.75
2023-12-20T21:03:40.052Z,101856.91
2023-12-20T21:06:08.206Z,101857.13
2023-12-20T21:08:36.078Z,101863.81
2023-12-20T21:11:03.848Z,101863.25
2023-12-20T21:13:31.612Z,101864.25
2023-12-20T21:16:01.126Z,101845.06
2023-12-20T21:18:29.702Z,101835.50
2023-12-20T21:20:57.783Z,101825.91
2023-12-20T21:23:25.508Z,101817.44
2023-12-20T21:25:53.200Z,101837.19
2023-12-20T21:28:22.510Z,101830.63
2023-12-20T21:30:51.177Z,101835.06
2023-12-20T21:33:20.448Z,101833.88
2023-12-20T21:35:48.178Z,101827.44
2023-12-20T21:38:15.870Z,101831.22
2023-12-20T21:40:43.659Z,101832.53
2023-12-20T21:43:11.502Z,101822.22
2023-12-20T21:45:39.253Z,101815.63
2023-12-20T21:48:09.675Z,101817.13
2023-12-20T21:50:40.287Z,101817.66
2023-12-20T21:53:11.089Z,101817.78
2023-12-20T21:55:39.618Z,101807.88
2023-12-20T21:58:09.114Z,101822.69
2023-12-20T22:00:37.512Z,101806.94
2023-12-20T22:03:09.433Z,101805.06
2023-12-20T22:05:39.443Z,101811.28
2023-12-20T22:08:08.740Z,101816.09
2023-12-20T22:10:36.706Z,101813.50
2023-12-20T22:13:04.636Z,101811.44
2023-12-20T22:15:32.359Z,101817.66
2023-12-20T22:18:00.339Z,101813.91
2023-12-20T22:20:28.134Z,101822.56
2023-12-20T22:22:57.232Z,101810.72
2023-12-20T22:25:24.066Z,101804.91
2023-12-20T22:27:51.839Z,101805.97
2023-12-20T22:30:19.711Z,101793.84
2023-12-20T22:32:47.470Z,101781.03
2023-12-20T22:35:16.464Z,101782.59
2023-12-20T22:37:46.394Z,101790.88
2023-12-20T22:40:15.911Z,101786.72
2023-12-20T22:42:43.705Z,101785.38
2023-12-20T22:45:12.128Z,101776.38
2023-12-20T22:47:38.915Z,101765.66
2023-12-20T22:50:08.142Z,101762.03
2023-12-20T22:52:36.099Z,101766.63
2023-12-20T22:55:04.028Z,101763.41
2023-12-20T22:57:33.306Z,101757.69
2023-12-20T23:00:01.400Z,101749.63
2023-12-20T23:02:29.211Z,101742.34
2023-12-20T23:04:57.008Z,101750.63
2023-12-20T23:07:25.354Z,101747.63
2023-12-20T23:09:53.787Z,101752.84
2023-12-20T23:12:21.820Z,101738.91
2023-12-20T23:14:51.910Z,101743.66
2023-12-20T23:17:19.601Z,101744.78
2023-12-20T23:19:47.550Z,101742.88
2023-12-20T23:22:15.340Z,101737.66
2023-12-20T23:24:44.485Z,101733.75
2023-12-20T23:27:12.217Z,101734.59
2023-12-20T23:29:40.062Z,101719.53
2023-12-20T23:32:09.267Z,101725.69
2023-12-20T23:34:37.041Z,101724.97
2023-12-20T23:37:05.116Z,101726.34
2023-12-20T23:39:32.862Z,101725.88
2023-12-20T23:42:00.610Z,101735.59
2023-12-20T23:44:28.309Z,101737.41
2023-12-20T23:46:56.060Z,101730.41
2023-12-20T23:49:25.481Z,101719.97
2023-12-20T23:51:53.652Z,101723.63
2023-12-20T23:54:21.420Z,101731.41
2023-12-20T23:56:49.512Z,101730.84
2023-12-20T23:59:17.233Z,101722.63
